Time,TemperatureF,DewpointF,PressureIn,WindDirection,WindDirectionDegrees,WindSpeedMPH,WindSpeedGustMPH,Humidity,HourlyPrecipIn,Conditions,Clouds,dailyrainin,SoftwareType,DateUTC
2013-05-17 00:13:00,65.9,55.0,29.88,NW,320,2.0,4.0,68,0.00,,,0.00,weatherlink.com 1.10,2013-05-17 04:13:00,
2013-05-17 00:28:00,66.4,55.0,29.88,NW,305,4.0,5.0,68,0.00,,,0.00,weatherlink.com 1.10,2013-05-17 04:28:00,
2013-05-17 00:43:00,65.8,55.0,29.88,West,275,0.0,4.0,69,0.00,,,0.00,weatherlink.com 1.10,2013-05-17 04:43:00,
2013-05-17 00:58:00,63.9,55.0,29.88,SSE,156,1.0,2.0,73,0.00,,,0.00,weatherlink.com 1.10,2013-05-17 04:58:00,
2013-05-17 01:13:00,61.6,55.0,29.88,SSE,156,0.0,0.0,78,0.00,,,0.00,weatherlink.com 1.10,2013-05-17 05:13:00,
2013-05-17 01:28:00,59.8,54.0,29.88,SSE,156,0.0,0.0,82,0.00,,,0.00,weatherlink.com 1.10,2013-05-17 05:28:00,
2013-05-17 01:43:00,58.3,54.0,29.88,NW,317,0.0,2.0,86,0.00,,,0.00,weatherlink.com 1.10,2013-05-17 05:43:00,
2013-05-17 01:58:00,57.5,54.0,29.88,NW,317,0.0,1.0,88,0.00,,,0.00,weatherlink.com 1.10,2013-05-17 05:58:00,
2013-05-17 02:13:00,56.9,54.0,29.88,NW,317,0.0,0.0,89,0.00,,,0.00,weatherlink.com 1.10,2013-05-17 06:13:00,
2013-05-17 02:28:00,56.0,53.0,29.88,NW,317,0.0,1.0,89,0.00,,,0.00,weatherlink.com 1.10,2013-05-17 06:28:00,
2013-05-17 02:43:00,55.4,53.0,29.89,NW,317,0.0,0.0,91,0.00,,,0.00,weatherlink.com 1.10,2013-05-17 06:43:00,
2013-05-17 02:58:00,55.0,53.0,29.90,NW,317,0.0,0.0,92,0.00,,,0.00,weatherlink.com 1.10,2013-05-17 06:58:00,
2013-05-17 03:13:00,54.5,53.0,29.90,NW,316,0.0,3.0,93,0.00,,,0.00,weatherlink.com 1.10,2013-05-17 07:13:00,
2013-05-17 03:29:00,54.2,53.0,29.91,NW,316,0.0,0.0,94,0.00,,,0.00,weatherlink.com 1.10,2013-05-17 07:29:00,
2013-05-17 03:44:00,53.9,52.0,29.91,NW,316,0.0,0.0,94,0.00,,,0.00,weatherlink.com 1.10,2013-05-17 07:44:00,
2013-05-17 03:59:00,53.6,52.0,29.92,NW,316,0.0,0.0,94,0.00,,,0.00,weatherlink.com 1.10,2013-05-17 07:59:00,
2013-05-17 04:14:00,53.5,52.0,29.93,NW,316,0.0,0.0,94,0.00,,,0.00,weatherlink.com 1.10,2013-05-17 08:14:00,
2013-05-17 04:29:00,53.2,52.0,29.93,NW,316,0.0,0.0,95,0.00,,,0.00,weatherlink.com 1.10,2013-05-17 08:29:00,
2013-05-17 04:44:00,53.0,52.0,29.94,NW,316,0.0,0.0,95,0.00,,,0.00,weatherlink.com 1.10,2013-05-17 08:44:00,
2013-05-17 04:59:00,52.7,51.0,29.95,NW,316,0.0,0.0,95,0.00,,,0.00,weatherlink.com 1.10,2013-05-17 08:59:00,
2013-05-17 05:14:00,52.4,51.0,29.96,NW,316,0.0,0.0,95,0.00,,,0.00,weatherlink.com 1.10,2013-05-17 09:14:00,
2013-05-17 05:29:00,52.5,51.0,29.96,NW,316,0.0,2.0,96,0.00,,,0.00,weatherlink.com 1.10,2013-05-17 09:29:00,
2013-05-17 05:44:00,52.9,52.0,29.97,NW,316,0.0,1.0,97,0.00,,,0.00,weatherlink.com 1.10,2013-05-17 09:44:00,
2013-05-17 05:59:00,53.1,52.0,29.98,NW,316,0.0,0.0,97,0.00,,,0.00,weatherlink.com 1.10,2013-05-17 09:59:00,
2013-05-17 06:14:00,53.3,53.0,29.99,NW,316,0.0,1.0,97,0.00,,,0.00,weatherlink.com 1.10,2013-05-17 10:14:00,
2013-05-17 06:29:00,53.6,53.0,30.00,NW,316,1.0,2.0,97,0.00,,,0.00,weatherlink.com 1.10,2013-05-17 10:29:00,
2013-05-17 06:44:00,53.8,53.0,30.01,NW,316,0.0,0.0,97,0.00,,,0.00,weatherlink.com 1.10,2013-05-17 10:44:00,
2013-05-17 06:59:00,54.7,54.0,30.01,NW,316,0.0,0.0,98,0.00,,,0.00,weatherlink.com 1.10,2013-05-17 10:59:00,
2013-05-17 07:14:00,56.4,56.0,30.02,NW,313,0.0,3.0,98,0.00,,,0.00,weatherlink.com 1.10,2013-05-17 11:14:00,
2013-05-17 07:29:00,58.7,58.0,30.02,NW,310,0.0,2.0,97,0.00,,,0.00,weatherlink.com 1.10,2013-05-17 11:29:00,
2013-05-17 07:44:00,61.4,59.0,30.03,NW,314,0.0,3.0,93,0.00,,,0.00,weatherlink.com 1.10,2013-05-17 11:44:00,
2013-05-17 07:59:00,64.6,60.0,30.03,NW,325,1.0,4.0,84,0.00,,,0.00,weatherlink.com 1.10,2013-05-17 11:59:00,
2013-05-17 08:14:00,66.7,60.0,30.03,NW,321,3.0,4.0,79,0.00,,,0.00,weatherlink.com 1.10,2013-05-17 12:14:00,
2013-05-17 08:29:00,68.0,60.0,30.04,NW,320,1.0,4.0,76,0.00,,,0.00,weatherlink.com 1.10,2013-05-17 12:29:00,
2013-05-17 08:44:00,68.8,60.0,30.04,NNW,335,2.0,7.0,74,0.00,,,0.00,weatherlink.com 1.10,2013-05-17 12:44:00,
2013-05-17 08:59:00,69.6,61.0,30.04,NNW,335,3.0,6.0,73,0.00,,,0.00,weatherlink.com 1.10,2013-05-17 12:59:00,
2013-05-17 09:15:00,70.6,61.0,30.04,North,353,1.0,4.0,72,0.00,,,0.00,weatherlink.com 1.10,2013-05-17 13:15:00,
2013-05-17 09:30:00,71.3,61.0,30.04,NNW,331,2.0,6.0,69,0.00,,,0.00,weatherlink.com 1.10,2013-05-17 13:30:00,
2013-05-17 09:45:00,71.9,60.0,30.04,NW,318,1.0,7.0,66,0.00,,,0.00,weatherlink.com 1.10,2013-05-17 13:45:00,
2013-05-17 10:00:00,72.9,60.0,30.04,North,349,2.0,7.0,65,0.00,,,0.00,weatherlink.com 1.10,2013-05-17 14:00:00,
2013-05-17 10:15:00,73.2,60.0,30.04,NNW,336,2.0,5.0,63,0.00,,,0.00,weatherlink.com 1.10,2013-05-17 14:15:00,
2013-05-17 10:30:00,73.2,59.0,30.04,WNW,282,7.0,9.0,62,0.00,,,0.00,weatherlink.com 1.10,2013-05-17 14:30:00,
2013-05-17 10:45:00,74.0,60.0,30.04,NW,325,2.0,4.0,61,0.00,,,0.00,weatherlink.com 1.10,2013-05-17 14:45:00,
2013-05-17 11:00:00,74.7,59.0,30.04,NW,321,4.0,6.0,59,0.00,,,0.00,weatherlink.com 1.10,2013-05-17 15:00:00,
2013-05-17 11:15:00,75.6,58.0,30.04,NNW,331,0.0,6.0,55,0.00,,,0.00,weatherlink.com 1.10,2013-05-17 15:15:00,
2013-05-17 11:30:00,76.2,60.0,30.03,NW,307,2.0,7.0,57,0.00,,,0.00,weatherlink.com 1.10,2013-05-17 15:30:00,
2013-05-17 11:45:00,76.3,60.0,30.03,NW,306,3.0,3.0,57,0.00,,,0.00,weatherlink.com 1.10,2013-05-17 15:45:00,
2013-05-17 12:00:00,78.0,59.0,30.02,ESE,106,3.0,5.0,53,0.00,,,0.00,weatherlink.com 1.10,2013-05-17 16:00:00,
2013-05-17 12:15:00,77.3,58.0,30.02,WNW,283,5.0,7.0,52,0.00,,,0.00,weatherlink.com 1.10,2013-05-17 16:15:00,
2013-05-17 12:30:00,78.1,58.0,30.02,NNW,331,1.0,5.0,50,0.00,,,0.00,weatherlink.com 1.10,2013-05-17 16:30:00,
2013-05-17 12:45:00,78.4,57.0,30.02,North,360,2.0,8.0,48,0.00,,,0.00,weatherlink.com 1.10,2013-05-17 16:45:00,
2013-05-17 13:00:00,78.7,60.0,30.02,SE,124,3.0,9.0,53,0.00,,,0.00,weatherlink.com 1.10,2013-05-17 17:00:00,
2013-05-17 13:15:00,79.1,60.0,30.02,ENE,72,5.0,11.0,52,0.00,,,0.00,weatherlink.com 1.10,2013-05-17 17:15:00,
2013-05-17 13:30:00,78.7,61.0,30.01,East,79,2.0,6.0,54,0.00,,,0.00,weatherlink.com 1.10,2013-05-17 17:30:00,
2013-05-17 13:45:00,79.4,60.0,30.01,South,175,3.0,8.0,52,0.00,,,0.00,weatherlink.com 1.10,2013-05-17 17:45:00,
2013-05-17 14:00:00,80.9,58.0,30.01,NE,48,1.0,8.0,45,0.00,,,0.00,weatherlink.com 1.10,2013-05-17 18:00:00,
2013-05-17 14:15:00,81.1,58.0,30.00,SE,134,4.0,10.0,45,0.00,,,0.00,weatherlink.com 1.10,2013-05-17 18:15:00,
2013-05-17 14:30:00,80.8,60.0,29.99,East,79,3.0,8.0,49,0.00,,,0.00,weatherlink.com 1.10,2013-05-17 18:30:00,
2013-05-17 14:45:00,81.4,59.0,29.99,East,96,3.0,5.0,47,0.00,,,0.00,weatherlink.com 1.10,2013-05-17 18:45:00,
2013-05-17 15:00:00,81.4,57.0,29.99,East,94,6.0,9.0,43,0.00,,,0.00,weatherlink.com 1.10,2013-05-17 19:00:00,
2013-05-17 15:15:00,81.4,57.0,29.99,SSE,165,4.0,9.0,43,0.00,,,0.00,weatherlink.com 1.10,2013-05-17 19:15:00,
2013-05-17 15:30:00,82.6,60.0,29.98,WNW,282,3.0,8.0,46,0.00,,,0.00,weatherlink.com 1.10,2013-05-17 19:30:00,
2013-05-17 15:45:00,83.5,61.0,29.98,SSW,200,0.0,5.0,46,0.00,,,0.00,weatherlink.com 1.10,2013-05-17 19:45:00,
2013-05-17 16:00:00,81.6,59.0,29.97,ESE,111,9.0,10.0,47,0.00,,,0.00,weatherlink.com 1.10,2013-05-17 20:00:00,
2013-05-17 16:15:00,81.9,57.0,29.97,SE,130,5.0,10.0,43,0.00,,,0.00,weatherlink.com 1.10,2013-05-17 20:15:00,
2013-05-17 16:30:00,82.0,60.0,29.96,ESE,108,6.0,8.0,47,0.00,,,0.00,weatherlink.com 1.10,2013-05-17 20:30:00,
2013-05-17 16:45:00,81.5,59.0,29.96,SE,137,4.0,6.0,46,0.00,,,0.00,weatherlink.com 1.10,2013-05-17 20:45:00,
2013-05-17 17:00:00,81.9,58.0,29.96,SSE,154,1.0,9.0,44,0.00,,,0.00,weatherlink.com 1.10,2013-05-17 21:00:00,
2013-05-17 17:16:00,82.4,57.0,29.96,SSE,150,1.0,7.0,42,0.00,,,0.00,weatherlink.com 1.10,2013-05-17 21:16:00,
2013-05-17 17:31:00,82.5,56.0,29.97,SSE,152,1.0,8.0,41,0.00,,,0.00,weatherlink.com 1.10,2013-05-17 21:31:00,
2013-05-17 17:46:00,81.3,56.0,29.97,ESE,116,1.0,7.0,42,0.00,,,0.00,weatherlink.com 1.10,2013-05-17 21:46:00,
2013-05-17 18:01:00,80.7,59.0,29.97,SW,236,2.0,5.0,47,0.00,,,0.00,weatherlink.com 1.10,2013-05-17 22:01:00,
2013-05-17 18:16:00,80.2,58.0,29.97,ESE,113,4.0,8.0,46,0.00,,,0.00,weatherlink.com 1.10,2013-05-17 22:16:00,
2013-05-17 18:31:00,79.8,59.0,29.97,SSE,159,3.0,10.0,49,0.00,,,0.00,weatherlink.com 1.10,2013-05-17 22:31:00,
2013-05-17 18:46:00,79.8,58.0,29.97,SE,139,3.0,7.0,47,0.00,,,0.00,weatherlink.com 1.10,2013-05-17 22:46:00,
2013-05-17 19:01:00,79.4,57.0,29.97,SE,124,2.0,4.0,47,0.00,,,0.00,weatherlink.com 1.10,2013-05-17 23:01:00,
2013-05-17 19:16:00,79.0,58.0,29.98,SSE,152,0.0,4.0,48,0.00,,,0.00,weatherlink.com 1.10,2013-05-17 23:16:00,
2013-05-17 19:31:00,78.0,57.0,29.98,SE,141,1.0,4.0,48,0.00,,,0.00,weatherlink.com 1.10,2013-05-17 23:31:00,
2013-05-17 19:46:00,76.5,59.0,29.98,SSW,197,0.0,2.0,54,0.00,,,0.00,weatherlink.com 1.10,2013-05-17 23:46:00,
2013-05-17 20:01:00,74.9,58.0,29.99,SE,137,0.0,1.0,56,0.00,,,0.00,weatherlink.com 1.10,2013-05-18 00:01:00,
2013-05-17 20:16:00,73.0,58.0,29.99,SE,137,0.0,0.0,59,0.00,,,0.00,weatherlink.com 1.10,2013-05-18 00:16:00,
2013-05-17 20:31:00,71.1,57.0,30.00,SE,137,0.0,0.0,62,0.00,,,0.00,weatherlink.com 1.10,2013-05-18 00:31:00,
2013-05-17 20:46:00,69.5,58.0,30.00,SE,137,0.0,0.0,66,0.00,,,0.00,weatherlink.com 1.10,2013-05-18 00:46:00,
2013-05-17 21:01:00,68.3,58.0,30.00,SE,137,0.0,0.0,69,0.00,,,0.00,weatherlink.com 1.10,2013-05-18 01:01:00,
2013-05-17 21:16:00,67.3,58.0,30.01,SE,137,0.0,0.0,71,0.00,,,0.00,weatherlink.com 1.10,2013-05-18 01:16:00,
2013-05-17 21:31:00,66.2,58.0,30.02,SE,137,0.0,0.0,76,0.00,,,0.00,weatherlink.com 1.10,2013-05-18 01:31:00,
2013-05-17 21:46:00,65.4,58.0,30.02,SE,137,0.0,0.0,76,0.00,,,0.00,weatherlink.com 1.10,2013-05-18 01:46:00,
2013-05-17 22:01:00,64.5,58.0,30.03,SE,137,0.0,0.0,79,0.00,,,0.00,weatherlink.com 1.10,2013-05-18 02:01:00,
2013-05-17 22:16:00,64.0,58.0,30.04,SE,137,0.0,0.0,81,0.00,,,0.00,weatherlink.com 1.10,2013-05-18 02:16:00,
2013-05-17 22:31:00,64.1,58.0,30.04,East,82,0.0,0.0,81,0.00,,,0.00,weatherlink.com 1.10,2013-05-18 02:31:00,
2013-05-17 22:46:00,64.5,59.0,30.04,ENE,75,0.0,0.0,81,0.00,,,0.00,weatherlink.com 1.10,2013-05-18 02:46:00,
2013-05-17 23:01:00,64.5,59.0,30.04,ENE,75,0.0,0.0,81,0.00,,,0.00,weatherlink.com 1.10,2013-05-18 03:01:00,
2013-05-17 23:16:00,64.0,58.0,30.04,ENE,75,0.0,0.0,81,0.00,,,0.00,weatherlink.com 1.10,2013-05-18 03:16:00,
2013-05-17 23:31:00,63.5,59.0,30.04,ENE,75,0.0,0.0,84,0.00,,,0.00,weatherlink.com 1.10,2013-05-18 03:31:00,
2013-05-17 23:46:00,63.3,58.0,30.04,NE,44,0.0,3.0,84,0.00,,,0.00,weatherlink.com 1.10,2013-05-18 03:46:00,